Time;durP1;ratioP1;P1;durP2;ratioP2;P2;SDS_P1;SDS_P2;PMS_P1;PMS_P2;Temp;Humidity;BMP_temperature;BMP_pressure;BME280_temperature;BME280_humidity;BME280_pressure;Samples;Min_cycle;Max_cycle;Signal;HPM_P1;HPM_P2
2022/12/08 00:17:03;;;;;;;26.40;14.40;;;;;;;0.77;96.12;97996.20;419627;1301;99252;-39
2022/12/08 00:27:13;;;;;;;32.70;20.20;;;;;;;0.76;96.20;98002.89;419670;1289;111379;-39
2022/12/08 00:37:19;;;;;;;26.20;15.90;;;;;;;0.84;96.22;98007.75;419756;1297;107201;-38
2022/12/08 00:47:26;;;;;;;32.60;16.90;;;;;;;0.93;96.27;98017.45;419573;1304;99168;-38
2022/12/08 00:57:34;;;;;;;32.60;19.00;;;;;;;1.02;96.43;98017.20;419590;1304;108493;-39
2022/12/08 01:07:41;;;;;;;41.00;20.70;;;;;;;0.92;96.42;98021.21;419756;1304;99119;-38
2022/12/08 01:17:57;;;;;;;52.40;24.70;;;;;;;0.71;96.23;98018.07;419729;1295;111657;-39
2022/12/08 01:28:04;;;;;;;48.90;24.60;;;;;;;0.56;96.21;98025.34;419657;1301;108231;-40
2022/12/08 01:38:11;;;;;;;33.40;22.90;;;;;;;0.48;96.09;98033.60;419674;1296;99229;-38
2022/12/08 01:48:24;;;;;;;33.30;21.60;;;;;;;0.51;96.08;98035.85;419601;1300;108821;-39
2022/12/08 01:58:35;;;;;;;39.70;23.50;;;;;;;0.64;96.33;98018.19;419607;1293;99236;-38
2022/12/08 02:08:43;;;;;;;29.40;19.00;;;;;;;0.73;96.36;98018.70;419615;1296;111168;-39
2022/12/08 02:29:38;;;;;;;40.90;24.70;;;;;;;0.64;96.40;98013.51;409458;1329;635055;-39
2022/12/08 02:39:53;;;;;;;41.50;24.70;;;;;;;0.56;96.47;98024.27;418993;1304;436468;-39
2022/12/08 02:50:00;;;;;;;36.00;25.10;;;;;;;0.60;96.40;98016.38;419709;1302;107362;-39
2022/12/08 03:00:12;;;;;;;28.60;19.90;;;;;;;0.68;96.36;98014.70;419637;1300;107931;-39
2022/12/08 03:10:27;;;;;;;28.40;19.40;;;;;;;0.80;96.43;98017.67;422314;1295;95607;-39
2022/12/08 03:20:37;;;;;;;23.90;16.80;;;;;;;0.88;96.49;98023.05;422231;1289;95510;-39
2022/12/08 03:30:48;;;;;;;30.60;18.90;;;;;;;0.88;96.49;98028.45;422236;1295;106717;-39
2022/12/08 03:51:12;;;;;;;29.00;18.70;;;;;;;0.70;96.47;98016.71;422181;1295;107286;-39
2022/12/08 04:01:20;;;;;;;33.70;20.60;;;;;;;0.65;96.45;98016.28;422182;1288;95267;-39
2022/12/08 04:11:28;;;;;;;25.90;18.40;;;;;;;0.70;96.34;98011.54;422137;1295;107865;-38
2022/12/08 04:21:35;;;;;;;23.20;15.50;;;;;;;0.73;96.46;98001.11;422118;1289;107417;-39
2022/12/08 04:31:42;;;;;;;25.20;16.40;;;;;;;0.72;96.34;97997.08;422155;1295;95399;-38
2022/12/08 04:41:49;;;;;;;23.40;14.00;;;;;;;0.74;96.45;97997.91;422100;1288;108863;-38
2022/12/08 04:51:57;;;;;;;21.80;15.50;;;;;;;0.77;96.35;97995.63;422114;1288;108813;-39
2022/12/08 05:02:03;;;;;;;41.50;21.20;;;;;;;0.69;96.36;97990.27;422175;1287;96233;-39
2022/12/08 05:12:10;;;;;;;36.20;22.20;;;;;;;0.57;96.51;97994.66;422184;1295;96153;-38
2022/12/08 05:22:18;;;;;;;34.20;20.20;;;;;;;0.44;96.27;97998.15;422215;1295;108259;-39
2022/12/08 05:32:27;;;;;;;32.90;19.50;;;;;;;0.38;96.06;98000.25;422201;1295;108383;-38
2022/12/08 05:42:35;;;;;;;28.90;19.00;;;;;;;0.36;96.26;98006.91;422266;1292;95310;-39
2022/12/08 05:52:42;;;;;;;28.20;18.40;;;;;;;0.36;96.33;98012.31;422254;1295;110308;-39
2022/12/08 06:02:49;;;;;;;39.50;21.10;;;;;;;0.35;96.43;98008.65;422185;1289;107390;-38
2022/12/08 06:12:57;;;;;;;40.80;24.60;;;;;;;0.20;96.56;98016.77;422277;1291;95431;-39
2022/12/08 06:23:05;;;;;;;57.30;30.90;;;;;;;0.10;96.56;98019.21;422075;1295;96519;-40
2022/12/08 06:33:12;;;;;;;60.90;33.00;;;;;;;0.09;96.55;98026.17;422223;1295;109303;-42
2022/12/08 06:43:20;;;;;;;51.00;26.10;;;;;;;0.14;96.31;98024.88;422171;1295;107078;-40
2022/12/08 07:03:34;;;;;;;37.30;22.20;;;;;;;0.42;96.38;98043.63;422303;1283;109162;-38
2022/12/08 07:13:41;;;;;;;42.20;24.70;;;;;;;0.43;96.27;98048.23;422375;1295;107145;-39
2022/12/08 07:23:50;;;;;;;52.70;25.60;;;;;;;0.35;96.38;98044.49;422268;1295;108278;-40
2022/12/08 07:34:06;;;;;;;40.30;23.20;;;;;;;0.47;96.35;98045.34;422126;1295;96739;-38
2022/12/08 07:44:12;;;;;;;26.70;17.80;;;;;;;0.75;96.15;98042.91;422062;1288;107695;-38
2022/12/08 07:54:20;;;;;;;21.90;14.10;;;;;;;1.05;96.66;98042.23;422071;1288;108341;-40
2022/12/08 08:04:26;;;;;;;31.70;17.90;;;;;;;1.34;96.68;98041.05;421975;1289;95344;-40
2022/12/08 08:14:35;;;;;;;37.20;21.00;;;;;;;1.60;96.82;98049.41;422001;1295;107893;-38
2022/12/08 08:24:42;;;;;;;25.90;16.60;;;;;;;1.71;96.44;98042.57;422182;1295;109447;-39
2022/12/08 08:34:50;;;;;;;25.00;16.40;;;;;;;1.77;95.97;98040.09;422093;1295;105984;-39
2022/12/08 08:44:57;;;;;;;30.40;18.20;;;;;;;1.97;96.18;98036.08;422142;1295;95584;-39
2022/12/08 08:55:04;;;;;;;36.70;21.60;;;;;;;2.23;96.52;98031.23;422187;1282;107640;-37
2022/12/08 09:05:09;;;;;;;38.00;21.40;;;;;;;2.60;96.56;98038.84;422278;1274;107876;-38
2022/12/08 09:25:23;;;;;;;20.60;13.70;;;;;;;3.05;95.73;98022.24;422228;1295;96124;-39
2022/12/08 09:35:30;;;;;;;22.90;13.90;;;;;;;3.11;95.49;98008.16;422357;1288;109299;-39
2022/12/08 09:45:38;;;;;;;33.20;17.90;;;;;;;3.32;95.31;97993.52;422226;1295;108440;-39
2022/12/08 09:55:50;;;;;;;26.30;15.40;;;;;;;3.47;95.42;97989.09;423025;1292;107112;-39
2022/12/08 10:05:59;;;;;;;26.00;15.40;;;;;;;3.70;95.09;97981.41;423012;1290;95648;-39
2022/12/08 10:16:08;;;;;;;16.70;10.80;;;;;;;3.62;94.39;97978.09;423067;1292;118466;-38
2022/12/08 10:26:22;;;;;;;18.10;11.60;;;;;;;3.95;94.43;97972.35;423049;1285;107397;-39
2022/12/08 10:36:45;;;;;;;23.20;14.10;;;;;;;4.06;94.16;97958.77;423118;1284;96035;-38
2022/12/08 10:46:52;;;;;;;26.60;14.20;;;;;;;3.80;93.66;97957.16;423144;1288;96155;-38
2022/12/08 10:57:00;;;;;;;29.30;15.10;;;;;;;3.55;93.63;97952.38;423042;1292;108949;-38
2022/12/08 11:17:23;;;;;;;16.80;10.00;;;;;;;3.63;93.33;97933.83;423048;1285;95276;-39
2022/12/08 11:27:32;;;;;;;26.80;15.70;;;;;;;3.98;93.47;97922.89;422994;1292;107097;-39
2022/12/08 11:37:39;;;;;;;24.30;14.30;;;;;;;4.36;93.42;97908.00;423050;1291;107354;-38
2022/12/08 11:47:45;;;;;;;26.80;14.10;;;;;;;4.59;92.87;97910.77;423029;1290;107833;-39
2022/12/08 11:57:57;;;;;;;18.50;11.00;;;;;;;4.71;92.00;97916.63;423020;1288;96506;-38
2022/12/08 12:08:07;;;;;;;24.70;12.80;;;;;;;4.74;91.59;97917.83;422985;1282;108200;-39
2022/12/08 12:28:40;;;;;;;25.40;14.80;;;;;;;4.37;90.84;97917.18;422874;1292;96162;-38
2022/12/08 12:49:44;;;;;;;17.30;11.90;;;;;;;4.27;90.18;97905.98;423041;1298;109482;-39
2022/12/08 13:00:05;;;;;;;22.90;12.50;;;;;;;4.09;90.18;97900.88;423020;1298;108214;-39
2022/12/08 13:10:12;;;;;;;24.00;13.40;;;;;;;3.71;89.95;97900.20;422833;1298;96162;-39
2022/12/08 13:20:19;;;;;;;31.60;17.20;;;;;;;3.38;89.91;97898.86;422869;1292;95639;-39
2022/12/08 13:30:44;;;;;;;19.20;12.30;;;;;;;3.12;89.81;97895.40;422943;1292;108595;-39
2022/12/08 13:40:50;;;;;;;19.30;12.20;;;;;;;2.98;89.78;97888.23;422984;1293;108636;-39
2022/12/08 13:50:58;;;;;;;36.20;18.10;;;;;;;2.91;90.03;97887.46;422993;1295;96139;-38
2022/12/08 14:11:34;;;;;;;33.20;18.20;;;;;;;2.66;90.05;97885.08;423065;1293;109550;-38
2022/12/08 14:21:46;;;;;;;24.10;13.70;;;;;;;2.56;89.95;97878.38;422926;1292;106369;-38
2022/12/08 14:31:52;;;;;;;20.80;12.60;;;;;;;2.56;89.89;97880.77;423093;1291;95645;-39
2022/12/08 14:42:05;;;;;;;31.10;17.00;;;;;;;2.52;90.12;97879.93;422753;1292;316483;-39
2022/12/08 14:52:14;;;;;;;23.60;14.30;;;;;;;2.40;90.25;97881.39;422974;1292;108255;-38
2022/12/08 15:02:24;;;;;;;17.70;10.60;;;;;;;2.26;90.22;97885.02;422798;1292;108473;-39
2022/12/08 15:12:32;;;;;;;15.00;8.80;;;;;;;2.23;89.94;97878.91;423049;1285;96166;-39
2022/12/08 15:22:40;;;;;;;12.80;8.60;;;;;;;2.24;90.00;97879.52;422884;1292;109142;-39
2022/12/08 15:32:51;;;;;;;26.30;12.10;;;;;;;2.25;90.12;97888.20;423115;1288;107773;-40
2022/12/08 15:42:58;;;;;;;26.80;13.90;;;;;;;2.21;90.25;97889.78;423105;1290;96224;-38
2022/12/08 15:53:05;;;;;;;19.80;11.70;;;;;;;2.11;90.16;97890.63;422979;1292;108892;-39
2022/12/08 16:03:18;;;;;;;20.20;13.20;;;;;;;2.16;90.10;97891.86;422924;1292;108607;-40
2022/12/08 16:24:20;;;;;;;31.20;19.10;;;;;;;2.21;90.18;97883.16;423195;1293;108099;-39
2022/12/08 16:34:28;;;;;;;28.70;15.90;;;;;;;2.12;90.30;97881.68;423112;1292;108346;-39
2022/12/08 16:44:40;;;;;;;21.00;13.70;;;;;;;2.11;90.12;97887.85;423015;1285;108615;-38
2022/12/08 16:54:47;;;;;;;19.90;12.30;;;;;;;2.15;90.19;97890.53;422995;1285;96660;-39
2022/12/08 17:04:54;;;;;;;37.70;20.30;;;;;;;2.15;90.33;97894.30;422977;1286;107815;-39
2022/12/08 17:15:02;;;;;;;34.80;20.50;;;;;;;2.07;90.36;97891.52;422919;1292;96819;-39
2022/12/08 17:25:09;;;;;;;31.40;19.10;;;;;;;2.02;90.24;97887.52;423051;1287;95426;-39
2022/12/08 17:35:17;;;;;;;33.20;19.70;;;;;;;2.01;90.17;97888.92;422871;1288;109602;-39
2022/12/08 17:45:23;;;;;;;34.70;19.70;;;;;;;2.01;90.29;97886.16;422913;1282;107132;-39
2022/12/08 17:55:30;;;;;;;54.70;27.70;;;;;;;1.96;90.37;97891.07;423044;1292;96133;-38
2022/12/08 18:05:37;;;;;;;54.70;27.60;;;;;;;1.85;90.47;97891.43;422763;1292;109289;-39
2022/12/08 18:15:45;;;;;;;43.80;24.30;;;;;;;1.80;90.42;97893.50;422921;1292;107575;-39
2022/12/08 18:25:52;;;;;;;42.30;26.40;;;;;;;1.81;90.36;97888.70;422941;1292;96915;-40
2022/12/08 18:35:59;;;;;;;46.00;25.10;;;;;;;1.81;90.47;97884.88;423072;1281;108676;-39
2022/12/08 18:56:24;;;;;;;66.20;36.00;;;;;;;1.66;90.88;97879.74;423036;1290;108047;-39
2022/12/08 19:06:32;;;;;;;58.70;33.50;;;;;;;1.51;90.87;97883.69;423133;1292;95665;-39
2022/12/08 19:16:41;;;;;;;54.40;31.90;;;;;;;1.47;90.79;97889.85;423157;1292;95520;-39
2022/12/08 19:26:49;;;;;;;58.00;35.70;;;;;;;1.47;90.79;97887.84;423013;1284;109470;-39
2022/12/08 19:36:55;;;;;;;58.70;35.40;;;;;;;1.42;90.89;97885.67;422868;1276;108203;-39
2022/12/08 19:47:01;;;;;;;68.80;36.20;;;;;;;1.41;90.94;97881.26;422715;1292;96664;-39
2022/12/08 19:57:10;;;;;;;83.30;45.20;;;;;;;1.37;91.27;97880.94;423045;1284;108154;-39
2022/12/08 20:07:18;;;;;;;94.20;46.90;;;;;;;1.17;91.21;97878.11;422996;1292;97567;-39
2022/12/08 20:17:26;;;;;;;72.70;37.10;;;;;;;1.06;91.21;97872.90;423057;1284;97889;-39
2022/12/08 20:37:37;;;;;;;64.60;35.70;;;;;;;0.96;91.46;97862.84;423214;1292;97504;-39
2022/12/08 20:47:43;;;;;;;64.80;35.90;;;;;;;0.99;91.49;97867.76;423086;1292;110940;-38
2022/12/08 20:57:51;;;;;;;52.50;33.90;;;;;;;1.02;91.75;97861.29;422960;1285;109419;-38
2022/12/08 21:07:57;;;;;;;62.60;34.00;;;;;;;1.07;91.85;97861.36;423102;1289;96696;-38
2022/12/08 21:18:03;;;;;;;78.30;40.20;;;;;;;1.08;92.16;97851.16;423062;1285;108722;-38
2022/12/08 21:28:13;;;;;;;88.90;43.00;;;;;;;1.05;92.22;97849.14;423013;1292;107857;-38
2022/12/08 21:38:19;;;;;;;65.80;38.50;;;;;;;1.06;92.21;97848.21;422963;1288;96692;-39
2022/12/08 21:48:26;;;;;;;57.40;35.20;;;;;;;1.09;92.20;97849.73;422993;1283;107986;-39
2022/12/08 21:58:34;;;;;;;52.80;33.00;;;;;;;1.12;92.07;97849.61;423135;1285;97892;-38
2022/12/08 22:08:42;;;;;;;75.60;41.40;;;;;;;1.11;92.13;97851.30;423016;1292;110339;-38
2022/12/08 22:18:53;;;;;;;89.10;44.70;;;;;;;0.99;92.24;97850.65;423186;1284;107355;-39
2022/12/08 22:29:02;;;;;;;57.90;35.40;;;;;;;0.96;92.27;97850.06;423008;1277;96603;-40
2022/12/08 22:39:09;;;;;;;56.80;33.30;;;;;;;1.00;92.47;97850.73;423077;1292;110575;-38
2022/12/08 22:49:16;;;;;;;58.90;32.70;;;;;;;1.09;92.31;97851.56;422926;1277;108165;-39
2022/12/08 22:59:23;;;;;;;73.70;41.00;;;;;;;1.07;92.35;97846.74;423078;1292;97896;-39
2022/12/08 23:09:31;;;;;;;72.50;39.80;;;;;;;0.95;92.45;97835.88;423111;1286;110945;-38
2022/12/08 23:19:41;;;;;;;76.30;40.50;;;;;;;0.85;92.43;97832.78;422988;1292;107787;-39
2022/12/08 23:30:22;;;;;;;59.10;35.10;;;;;;;0.73;92.15;97832.33;423060;1275;97883;-39
2022/12/08 23:40:28;;;;;;;64.80;36.90;;;;;;;0.65;92.26;97826.02;423020;1285;110563;-39
2022/12/08 23:50:35;;;;;;;62.70;35.40;;;;;;;0.66;92.31;97829.52;422967;1285;108211;-39
